sensor_id;sensor_type;location;lat;lon;timestamp;temperature;humidity
23124;DHT22;11731;48.592;8.858;2022-07-30T03:54:54;19.70;99.20
23124;DHT22;11731;48.592;8.858;2022-07-30T03:57:22;19.50;99.30
23124;DHT22;11731;48.592;8.858;2022-07-30T03:59:49;19.40;99.30
23124;DHT22;11731;48.592;8.858;2022-07-30T04:02:17;19.10;99.60
23124;DHT22;11731;48.592;8.858;2022-07-30T04:04:44;19.00;99.90
23124;DHT22;11731;48.592;8.858;2022-07-30T04:07:11;19.00;99.90
23124;DHT22;11731;48.592;8.858;2022-07-30T04:09:38;18.90;99.90
23124;DHT22;11731;48.592;8.858;2022-07-30T04:12:07;18.80;99.90
23124;DHT22;11731;48.592;8.858;2022-07-30T04:14:43;19.10;99.80
23124;DHT22;11731;48.592;8.858;2022-07-30T04:17:54;19.00;99.80
23124;DHT22;11731;48.592;8.858;2022-07-30T04:20:24;19.30;99.30
23124;DHT22;11731;48.592;8.858;2022-07-30T04:22:52;19.40;99.30
23124;DHT22;11731;48.592;8.858;2022-07-30T04:25:25;19.50;99.30
23124;DHT22;11731;48.592;8.858;2022-07-30T04:27:54;19.50;99.10
23124;DHT22;11731;48.592;8.858;2022-07-30T04:30:21;19.60;99.10
23124;DHT22;11731;48.592;8.858;2022-07-30T04:32:55;19.60;99.20
23124;DHT22;11731;48.592;8.858;2022-07-30T04:35:26;19.50;99.30
23124;DHT22;11731;48.592;8.858;2022-07-30T04:38:03;19.60;99.30
23124;DHT22;11731;48.592;8.858;2022-07-30T04:40:32;19.50;99.40
23124;DHT22;11731;48.592;8.858;2022-07-30T04:43:00;19.60;99.30
23124;DHT22;11731;48.592;8.858;2022-07-30T04:45:27;19.60;99.30
23124;DHT22;11731;48.592;8.858;2022-07-30T04:48:00;19.60;99.10
23124;DHT22;11731;48.592;8.858;2022-07-30T04:50:37;19.60;99.20
23124;DHT22;11731;48.592;8.858;2022-07-30T04:53:26;19.60;99.10
23124;DHT22;11731;48.592;8.858;2022-07-30T04:56:00;19.70;98.90
23124;DHT22;11731;48.592;8.858;2022-07-30T04:58:33;19.80;99.00
23124;DHT22;11731;48.592;8.858;2022-07-30T05:01:01;19.80;99.00
23124;DHT22;11731;48.592;8.858;2022-07-30T05:03:29;19.80;98.90
23124;DHT22;11731;48.592;8.858;2022-07-30T05:05:58;19.90;98.90
23124;DHT22;11731;48.592;8.858;2022-07-30T05:08:26;19.80;98.80
23124;DHT22;11731;48.592;8.858;2022-07-30T05:10:56;19.80;99.10
23124;DHT22;11731;48.592;8.858;2022-07-30T05:13:24;19.80;99.50
23124;DHT22;11731;48.592;8.858;2022-07-30T05:15:52;19.70;99.40
23124;DHT22;11731;48.592;8.858;2022-07-30T05:18:21;19.90;99.20
23124;DHT22;11731;48.592;8.858;2022-07-30T05:20:48;19.90;99.20
23124;DHT22;11731;48.592;8.858;2022-07-30T05:23:18;20.00;99.10
23124;DHT22;11731;48.592;8.858;2022-07-30T05:25:48;20.20;99.00
23124;DHT22;11731;48.592;8.858;2022-07-30T05:28:14;20.40;98.80
23124;DHT22;11731;48.592;8.858;2022-07-30T05:30:41;20.50;98.80
23124;DHT22;11731;48.592;8.858;2022-07-30T05:33:10;20.60;98.60
23124;DHT22;11731;48.592;8.858;2022-07-30T05:35:37;20.80;98.40
23124;DHT22;11731;48.592;8.858;2022-07-30T05:38:18;20.80;98.30
23124;DHT22;11731;48.592;8.858;2022-07-30T05:40:51;21.00;98.40
23124;DHT22;11731;48.592;8.858;2022-07-30T05:43:18;20.90;98.40
23124;DHT22;11731;48.592;8.858;2022-07-30T05:45:45;20.90;98.50
23124;DHT22;11731;48.592;8.858;2022-07-30T05:48:13;21.10;98.70
23124;DHT22;11731;48.592;8.858;2022-07-30T05:50:41;21.10;98.70
23124;DHT22;11731;48.592;8.858;2022-07-30T05:53:08;21.30;98.60
23124;DHT22;11731;48.592;8.858;2022-07-30T05:55:35;21.30;98.50
23124;DHT22;11731;48.592;8.858;2022-07-30T05:58:10;21.40;98.60
23124;DHT22;11731;48.592;8.858;2022-07-30T06:00:41;21.50;98.40
23124;DHT22;11731;48.592;8.858;2022-07-30T06:03:08;21.60;98.40
23124;DHT22;11731;48.592;8.858;2022-07-30T06:05:36;21.70;98.50
23124;DHT22;11731;48.592;8.858;2022-07-30T06:08:03;21.70;98.50
23124;DHT22;11731;48.592;8.858;2022-07-30T06:10:30;21.70;98.20
23124;DHT22;11731;48.592;8.858;2022-07-30T06:12:57;21.70;98.20
23124;DHT22;11731;48.592;8.858;2022-07-30T06:15:24;21.70;98.30
23124;DHT22;11731;48.592;8.858;2022-07-30T06:17:52;21.50;98.70
23124;DHT22;11731;48.592;8.858;2022-07-30T06:20:19;21.50;98.70
23124;DHT22;11731;48.592;8.858;2022-07-30T06:22:47;21.70;98.30
23124;DHT22;11731;48.592;8.858;2022-07-30T06:25:14;21.80;98.30
23124;DHT22;11731;48.592;8.858;2022-07-30T06:27:41;22.00;98.00
23124;DHT22;11731;48.592;8.858;2022-07-30T06:30:09;22.10;97.70
23124;DHT22;11731;48.592;8.858;2022-07-30T06:32:36;22.10;97.80
23124;DHT22;11731;48.592;8.858;2022-07-30T06:35:04;22.10;97.70
23124;DHT22;11731;48.592;8.858;2022-07-30T06:37:31;22.20;97.70
23124;DHT22;11731;48.592;8.858;2022-07-30T06:39:59;22.30;97.10
23124;DHT22;11731;48.592;8.858;2022-07-30T06:42:29;22.20;97.30
23124;DHT22;11731;48.592;8.858;2022-07-30T06:44:58;22.30;97.10
23124;DHT22;11731;48.592;8.858;2022-07-30T06:47:31;22.50;96.60
23124;DHT22;11731;48.592;8.858;2022-07-30T06:50:00;22.70;96.20
23124;DHT22;11731;48.592;8.858;2022-07-30T06:52:29;22.70;96.60
23124;DHT22;11731;48.592;8.858;2022-07-30T06:54:58;22.70;96.50
23124;DHT22;11731;48.592;8.858;2022-07-30T06:57:25;22.70;96.80
23124;DHT22;11731;48.592;8.858;2022-07-30T06:59:53;22.80;96.80
23124;DHT22;11731;48.592;8.858;2022-07-30T07:02:19;22.90;96.70
23124;DHT22;11731;48.592;8.858;2022-07-30T07:04:46;22.90;96.60
23124;DHT22;11731;48.592;8.858;2022-07-30T07:07:13;23.10;96.20
23124;DHT22;11731;48.592;8.858;2022-07-30T07:09:40;23.50;95.10
23124;DHT22;11731;48.592;8.858;2022-07-30T07:12:08;23.30;94.50
23124;DHT22;11731;48.592;8.858;2022-07-30T07:14:35;23.30;94.60
23124;DHT22;11731;48.592;8.858;2022-07-30T07:17:02;23.40;94.40
23124;DHT22;11731;48.592;8.858;2022-07-30T07:19:29;23.60;93.90
23124;DHT22;11731;48.592;8.858;2022-07-30T07:21:56;23.80;93.60
23124;DHT22;11731;48.592;8.858;2022-07-30T07:24:23;23.90;93.20
23124;DHT22;11731;48.592;8.858;2022-07-30T07:26:50;23.80;93.10
23124;DHT22;11731;48.592;8.858;2022-07-30T07:29:19;23.70;93.20
23124;DHT22;11731;48.592;8.858;2022-07-30T07:31:46;23.90;92.80
23124;DHT22;11731;48.592;8.858;2022-07-30T07:34:13;24.20;92.70
23124;DHT22;11731;48.592;8.858;2022-07-30T07:36:40;24.40;92.60
23124;DHT22;11731;48.592;8.858;2022-07-30T07:39:07;24.50;92.80
23124;DHT22;11731;48.592;8.858;2022-07-30T07:41:35;24.30;92.30
23124;DHT22;11731;48.592;8.858;2022-07-30T07:44:02;24.30;89.10
23124;DHT22;11731;48.592;8.858;2022-07-30T07:46:31;24.00;88.70
23124;DHT22;11731;48.592;8.858;2022-07-30T07:48:58;24.00;88.60
23124;DHT22;11731;48.592;8.858;2022-07-30T07:51:25;23.40;88.00
23124;DHT22;11731;48.592;8.858;2022-07-30T07:53:51;23.30;88.80
23124;DHT22;11731;48.592;8.858;2022-07-30T07:56:18;23.20;88.90
23124;DHT22;11731;48.592;8.858;2022-07-30T07:58:46;23.00;88.50
23124;DHT22;11731;48.592;8.858;2022-07-30T08:01:13;22.70;90.20
23124;DHT22;11731;48.592;8.858;2022-07-30T08:03:41;22.50;90.20
23124;DHT22;11731;48.592;8.858;2022-07-30T15:05:52;27.60;69.40
23124;DHT22;11731;48.592;8.858;2022-07-30T15:08:19;27.80;69.10
23124;DHT22;11731;48.592;8.858;2022-07-30T15:11:00;28.10;69.60
23124;DHT22;11731;48.592;8.858;2022-07-30T15:14:19;28.60;67.70
23124;DHT22;11731;48.592;8.858;2022-07-30T15:16:38;28.50;66.10
23124;DHT22;11731;48.592;8.858;2022-07-30T15:19:05;28.20;67.10
23124;DHT22;11731;48.592;8.858;2022-07-30T15:21:34;28.00;67.60
23124;DHT22;11731;48.592;8.858;2022-07-30T15:24:01;27.80;68.90
23124;DHT22;11731;48.592;8.858;2022-07-30T15:26:28;27.60;70.00
23124;DHT22;11731;48.592;8.858;2022-07-30T15:29:18;27.50;69.70
23124;DHT22;11731;48.592;8.858;2022-07-30T15:31:45;27.50;70.10
23124;DHT22;11731;48.592;8.858;2022-07-30T15:34:12;27.50;71.10
23124;DHT22;11731;48.592;8.858;2022-07-30T15:36:44;27.80;71.10
23124;DHT22;11731;48.592;8.858;2022-07-30T15:39:11;27.90;71.40
23124;DHT22;11731;48.592;8.858;2022-07-30T15:41:38;28.00;70.30
23124;DHT22;11731;48.592;8.858;2022-07-30T15:44:05;28.30;71.30
23124;DHT22;11731;48.592;8.858;2022-07-30T15:46:32;28.30;69.70
23124;DHT22;11731;48.592;8.858;2022-07-30T15:49:02;28.60;68.90
23124;DHT22;11731;48.592;8.858;2022-07-30T15:51:30;28.50;69.20
23124;DHT22;11731;48.592;8.858;2022-07-30T15:54:23;28.40;69.10
23124;DHT22;11731;48.592;8.858;2022-07-30T15:56:51;28.20;68.40
23124;DHT22;11731;48.592;8.858;2022-07-30T15:59:21;28.30;69.00
23124;DHT22;11731;48.592;8.858;2022-07-30T16:01:48;28.00;68.40
23124;DHT22;11731;48.592;8.858;2022-07-30T16:04:16;27.80;69.50
23124;DHT22;11731;48.592;8.858;2022-07-30T16:06:53;28.10;69.30
23124;DHT22;11731;48.592;8.858;2022-07-30T16:09:30;28.00;69.10
23124;DHT22;11731;48.592;8.858;2022-07-30T16:11:57;27.90;68.70
23124;DHT22;11731;48.592;8.858;2022-07-30T16:14:32;27.60;69.40
23124;DHT22;11731;48.592;8.858;2022-07-30T16:17:08;27.90;68.50
23124;DHT22;11731;48.592;8.858;2022-07-30T16:19:39;28.00;68.40
23124;DHT22;11731;48.592;8.858;2022-07-30T16:22:06;28.20;68.10
23124;DHT22;11731;48.592;8.858;2022-07-30T16:24:43;28.30;68.40
23124;DHT22;11731;48.592;8.858;2022-07-30T16:27:12;28.50;67.10
23124;DHT22;11731;48.592;8.858;2022-07-30T16:30:20;28.80;68.00
23124;DHT22;11731;48.592;8.858;2022-07-30T16:32:50;28.90;65.80
23124;DHT22;11731;48.592;8.858;2022-07-30T16:35:31;29.00;66.90
23124;DHT22;11731;48.592;8.858;2022-07-30T16:37:58;29.00;66.90
23124;DHT22;11731;48.592;8.858;2022-07-30T16:40:52;28.80;66.10
23124;DHT22;11731;48.592;8.858;2022-07-30T16:43:19;29.20;66.40
23124;DHT22;11731;48.592;8.858;2022-07-30T16:45:47;29.70;65.80
23124;DHT22;11731;48.592;8.858;2022-07-30T16:48:14;29.60;65.20
23124;DHT22;11731;48.592;8.858;2022-07-30T16:50:44;29.60;65.50
23124;DHT22;11731;48.592;8.858;2022-07-30T16:53:14;29.10;64.50
23124;DHT22;11731;48.592;8.858;2022-07-30T16:55:50;29.10;66.80
23124;DHT22;11731;48.592;8.858;2022-07-30T17:01:20;29.20;66.70
23124;DHT22;11731;48.592;8.858;2022-07-30T17:03:47;29.30;64.70
23124;DHT22;11731;48.592;8.858;2022-07-30T17:06:14;29.10;66.00
23124;DHT22;11731;48.592;8.858;2022-07-30T17:08:41;29.30;65.60
23124;DHT22;11731;48.592;8.858;2022-07-30T17:11:09;29.30;66.20
23124;DHT22;11731;48.592;8.858;2022-07-30T17:13:36;29.20;65.10
23124;DHT22;11731;48.592;8.858;2022-07-30T17:16:17;28.80;66.10
23124;DHT22;11731;48.592;8.858;2022-07-30T17:18:47;28.50;66.90
23124;DHT22;11731;48.592;8.858;2022-07-30T17:21:14;28.50;67.00
23124;DHT22;11731;48.592;8.858;2022-07-30T17:23:41;28.60;67.30
23124;DHT22;11731;48.592;8.858;2022-07-30T17:26:08;28.90;67.00
23124;DHT22;11731;48.592;8.858;2022-07-30T17:28:35;29.10;65.60
23124;DHT22;11731;48.592;8.858;2022-07-30T17:33:41;28.70;67.00
23124;DHT22;11731;48.592;8.858;2022-07-30T17:36:17;29.10;65.70
23124;DHT22;11731;48.592;8.858;2022-07-30T17:38:44;30.20;64.60
23124;DHT22;11731;48.592;8.858;2022-07-30T17:41:11;31.20;63.20
23124;DHT22;11731;48.592;8.858;2022-07-30T17:46:47;32.70;60.30
23124;DHT22;11731;48.592;8.858;2022-07-30T17:49:14;32.90;59.60
23124;DHT22;11731;48.592;8.858;2022-07-30T17:51:42;33.00;59.80
23124;DHT22;11731;48.592;8.858;2022-07-30T17:54:11;32.80;59.80
23124;DHT22;11731;48.592;8.858;2022-07-30T17:59:54;32.50;60.10
23124;DHT22;11731;48.592;8.858;2022-07-30T18:02:21;31.40;61.10
23124;DHT22;11731;48.592;8.858;2022-07-30T18:04:48;31.20;62.20
23124;DHT22;11731;48.592;8.858;2022-07-30T18:07:16;30.70;62.60
23124;DHT22;11731;48.592;8.858;2022-07-30T18:09:43;30.50;62.90
23124;DHT22;11731;48.592;8.858;2022-07-30T18:12:10;30.60;62.80
23124;DHT22;11731;48.592;8.858;2022-07-30T18:14:37;30.50;63.10
23124;DHT22;11731;48.592;8.858;2022-07-30T18:17:04;30.30;64.70
23124;DHT22;11731;48.592;8.858;2022-07-30T18:22:32;30.40;63.90
23124;DHT22;11731;48.592;8.858;2022-07-30T18:24:59;30.10;63.70
23124;DHT22;11731;48.592;8.858;2022-07-30T18:27:26;29.50;65.70
23124;DHT22;11731;48.592;8.858;2022-07-30T18:30:17;29.60;65.60
23124;DHT22;11731;48.592;8.858;2022-07-30T18:32:44;29.40;64.90
23124;DHT22;11731;48.592;8.858;2022-07-30T18:35:11;29.50;65.40
23124;DHT22;11731;48.592;8.858;2022-07-30T18:37:40;29.40;66.40
23124;DHT22;11731;48.592;8.858;2022-07-30T18:40:08;28.90;67.30
23124;DHT22;11731;48.592;8.858;2022-07-30T18:42:35;28.60;68.10
23124;DHT22;11731;48.592;8.858;2022-07-30T18:45:02;28.90;67.60
23124;DHT22;11731;48.592;8.858;2022-07-30T18:47:29;28.70;67.90
23124;DHT22;11731;48.592;8.858;2022-07-30T18:50:02;28.70;67.70
23124;DHT22;11731;48.592;8.858;2022-07-30T18:52:37;28.80;66.90
23124;DHT22;11731;48.592;8.858;2022-07-30T18:55:06;28.60;67.90
23124;DHT22;11731;48.592;8.858;2022-07-30T18:57:35;28.30;69.40
23124;DHT22;11731;48.592;8.858;2022-07-30T19:00:04;28.10;69.80
23124;DHT22;11731;48.592;8.858;2022-07-30T19:02:31;27.90;69.50
23124;DHT22;11731;48.592;8.858;2022-07-30T19:04:58;27.70;69.90
23124;DHT22;11731;48.592;8.858;2022-07-30T19:07:25;27.50;70.30
23124;DHT22;11731;48.592;8.858;2022-07-30T19:09:52;27.30;70.60
23124;DHT22;11731;48.592;8.858;2022-07-30T19:12:21;27.20;71.30
23124;DHT22;11731;48.592;8.858;2022-07-30T19:14:48;27.00;73.10
23124;DHT22;11731;48.592;8.858;2022-07-30T19:17:15;26.60;73.00
23124;DHT22;11731;48.592;8.858;2022-07-30T19:19:42;26.50;73.00
23124;DHT22;11731;48.592;8.858;2022-07-30T19:22:09;26.60;73.50
23124;DHT22;11731;48.592;8.858;2022-07-30T19:24:36;26.50;73.20
23124;DHT22;11731;48.592;8.858;2022-07-30T19:27:03;26.50;73.80
23124;DHT22;11731;48.592;8.858;2022-07-30T19:29:32;26.40;74.10
23124;DHT22;11731;48.592;8.858;2022-07-30T19:31:58;26.70;73.80
23124;DHT22;11731;48.592;8.858;2022-07-30T19:34:25;26.60;74.10
23124;DHT22;11731;48.592;8.858;2022-07-30T19:36:52;26.50;74.80
23124;DHT22;11731;48.592;8.858;2022-07-30T19:39:19;26.30;75.30
23124;DHT22;11731;48.592;8.858;2022-07-30T19:41:46;26.50;74.80
23124;DHT22;11731;48.592;8.858;2022-07-30T19:44:13;26.30;75.80
23124;DHT22;11731;48.592;8.858;2022-07-30T19:46:43;26.10;76.10
23124;DHT22;11731;48.592;8.858;2022-07-30T19:49:09;26.00;76.80
23124;DHT22;11731;48.592;8.858;2022-07-30T19:51:36;25.90;77.30
23124;DHT22;11731;48.592;8.858;2022-07-30T19:54:03;25.70;78.00
23124;DHT22;11731;48.592;8.858;2022-07-30T19:56:30;25.30;78.80
23124;DHT22;11731;48.592;8.858;2022-07-30T19:58:58;25.00;79.60
23124;DHT22;11731;48.592;8.858;2022-07-30T20:01:29;24.50;81.20
23124;DHT22;11731;48.592;8.858;2022-07-30T20:03:57;24.30;81.80
23124;DHT22;11731;48.592;8.858;2022-07-30T20:06:24;24.20;81.50
23124;DHT22;11731;48.592;8.858;2022-07-30T20:08:51;23.80;82.70
23124;DHT22;11731;48.592;8.858;2022-07-30T20:11:21;23.70;82.70
23124;DHT22;11731;48.592;8.858;2022-07-30T20:13:48;24.00;81.70
23124;DHT22;11731;48.592;8.858;2022-07-30T20:16:22;24.30;81.90
23124;DHT22;11731;48.592;8.858;2022-07-30T20:18:58;24.40;82.10
23124;DHT22;11731;48.592;8.858;2022-07-30T20:21:25;24.50;81.50
23124;DHT22;11731;48.592;8.858;2022-07-30T20:23:52;24.50;82.10
23124;DHT22;11731;48.592;8.858;2022-07-30T20:26:19;24.30;83.00
23124;DHT22;11731;48.592;8.858;2022-07-30T20:28:47;24.30;82.80
23124;DHT22;11731;48.592;8.858;2022-07-30T20:31:15;24.10;84.50
23124;DHT22;11731;48.592;8.858;2022-07-30T20:33:42;24.20;84.80
23124;DHT22;11731;48.592;8.858;2022-07-30T20:36:11;24.10;84.50
23124;DHT22;11731;48.592;8.858;2022-07-30T20:38:37;23.70;85.10
23124;DHT22;11731;48.592;8.858;2022-07-30T20:41:08;23.60;84.60
23124;DHT22;11731;48.592;8.858;2022-07-30T20:43:36;23.50;84.30
23124;DHT22;11731;48.592;8.858;2022-07-30T20:46:03;23.40;84.40
23124;DHT22;11731;48.592;8.858;2022-07-30T20:48:31;23.60;85.00
23124;DHT22;11731;48.592;8.858;2022-07-30T20:51:00;23.60;85.90
23124;DHT22;11731;48.592;8.858;2022-07-30T20:56:41;23.60;85.70
23124;DHT22;11731;48.592;8.858;2022-07-30T20:59:08;23.50;86.70
23124;DHT22;11731;48.592;8.858;2022-07-30T21:01:35;23.20;87.50
23124;DHT22;11731;48.592;8.858;2022-07-30T21:04:02;23.10;87.70
23124;DHT22;11731;48.592;8.858;2022-07-30T21:06:29;23.30;87.10
23124;DHT22;11731;48.592;8.858;2022-07-30T21:08:56;23.10;87.00
23124;DHT22;11731;48.592;8.858;2022-07-30T21:11:23;23.20;86.80
23124;DHT22;11731;48.592;8.858;2022-07-30T21:14:13;23.20;86.50
23124;DHT22;11731;48.592;8.858;2022-07-30T21:16:47;23.20;87.00
23124;DHT22;11731;48.592;8.858;2022-07-30T21:19:14;23.10;86.90
23124;DHT22;11731;48.592;8.858;2022-07-30T21:21:43;23.30;87.00
23124;DHT22;11731;48.592;8.858;2022-07-30T21:24:34;23.30;87.00
23124;DHT22;11731;48.592;8.858;2022-07-30T21:27:01;23.30;87.10
23124;DHT22;11731;48.592;8.858;2022-07-30T21:29:29;23.20;86.50
23124;DHT22;11731;48.592;8.858;2022-07-30T21:31:56;23.20;86.20
23124;DHT22;11731;48.592;8.858;2022-07-30T21:34:23;23.20;86.60
23124;DHT22;11731;48.592;8.858;2022-07-30T21:36:50;23.10;86.90
23124;DHT22;11731;48.592;8.858;2022-07-30T21:39:20;23.10;87.30
23124;DHT22;11731;48.592;8.858;2022-07-30T21:43:07;23.00;86.60
23124;DHT22;11731;48.592;8.858;2022-07-30T21:45:26;23.10;86.30
23124;DHT22;11731;48.592;8.858;2022-07-30T21:47:53;22.90;87.30
23124;DHT22;11731;48.592;8.858;2022-07-30T21:50:20;22.80;87.20
23124;DHT22;11731;48.592;8.858;2022-07-30T21:52:47;22.80;86.80
23124;DHT22;11731;48.592;8.858;2022-07-30T21:55:14;22.70;87.10
23124;DHT22;11731;48.592;8.858;2022-07-30T21:57:47;22.70;87.50
23124;DHT22;11731;48.592;8.858;2022-07-30T22:01:21;22.70;87.30
23124;DHT22;11731;48.592;8.858;2022-07-30T22:03:23;22.60;86.80
23124;DHT22;11731;48.592;8.858;2022-07-30T22:05:53;22.50;88.30
23124;DHT22;11731;48.592;8.858;2022-07-30T22:11:51;22.30;88.70
23124;DHT22;11731;48.592;8.858;2022-07-30T22:14:21;22.50;87.90
23124;DHT22;11731;48.592;8.858;2022-07-30T22:16:48;22.50;88.30
23124;DHT22;11731;48.592;8.858;2022-07-30T22:19:16;22.40;88.60
23124;DHT22;11731;48.592;8.858;2022-07-30T22:21:46;22.30;88.90
23124;DHT22;11731;48.592;8.858;2022-07-30T22:24:13;22.00;90.30
23124;DHT22;11731;48.592;8.858;2022-07-30T22:26:41;22.10;90.10
23124;DHT22;11731;48.592;8.858;2022-07-30T22:29:10;22.10;89.40
23124;DHT22;11731;48.592;8.858;2022-07-30T22:31:37;22.00;90.00
23124;DHT22;11731;48.592;8.858;2022-07-30T22:34:04;21.90;90.10
23124;DHT22;11731;48.592;8.858;2022-07-30T22:36:53;22.00;90.50
23124;DHT22;11731;48.592;8.858;2022-07-30T22:39:20;22.00;90.10
23124;DHT22;11731;48.592;8.858;2022-07-30T22:48:07;22.00;90.40
23124;DHT22;11731;48.592;8.858;2022-07-30T22:50:48;21.90;90.60
23124;DHT22;11731;48.592;8.858;2022-07-30T22:53:16;21.80;90.40
23124;DHT22;11731;48.592;8.858;2022-07-30T22:58:52;22.00;90.40
23124;DHT22;11731;48.592;8.858;2022-07-30T23:01:19;22.20;90.30
23124;DHT22;11731;48.592;8.858;2022-07-30T23:03:46;22.20;90.30
23124;DHT22;11731;48.592;8.858;2022-07-30T23:09:40;22.10;90.40
23124;DHT22;11731;48.592;8.858;2022-07-30T23:13:53;22.00;90.30
23124;DHT22;11731;48.592;8.858;2022-07-30T23:15:53;21.80;90.60
23124;DHT22;11731;48.592;8.858;2022-07-30T23:18:20;21.70;91.20
23124;DHT22;11731;48.592;8.858;2022-07-30T23:20:47;21.60;91.10
23124;DHT22;11731;48.592;8.858;2022-07-30T23:23:15;21.40;90.90
23124;DHT22;11731;48.592;8.858;2022-07-30T23:34:34;21.40;91.10
23124;DHT22;11731;48.592;8.858;2022-07-30T23:35:49;21.60;90.70
23124;DHT22;11731;48.592;8.858;2022-07-30T23:41:38;21.30;91.40
23124;DHT22;11731;48.592;8.858;2022-07-30T23:44:21;21.40;91.10
23124;DHT22;11731;48.592;8.858;2022-07-30T23:47:15;21.50;90.90
23124;DHT22;11731;48.592;8.858;2022-07-30T23:50:01;21.60;90.90
23124;DHT22;11731;48.592;8.858;2022-07-30T23:52:32;21.60;90.90
23124;DHT22;11731;48.592;8.858;2022-07-30T23:58:17;21.60;91.00
